Time;durP1;ratioP1;P1;durP2;ratioP2;P2;SDS_P1;SDS_P2;PMS_P1;PMS_P2;Temp;Humidity;BMP_temperature;BMP_pressure;BME280_temperature;BME280_humidity;BME280_pressure;Samples;Min_cycle;Max_cycle;Signal;HPM_P1;HPM_P2
2023/11/07 00:00:10;;;;;;;10.93;1.75;;;;;;;;;;5012447;28;20568;-88
2023/11/07 00:02:36;;;;;;;3.67;1.10;;;;;;;;;;5011295;28;20029;-88
2023/11/07 00:05:01;;;;;;;6.03;1.20;;;;;;;;;;5012240;28;20029;-89
2023/11/07 00:07:26;;;;;;;4.20;1.20;;;;;;;;;;5011464;28;20018;-89
2023/11/07 00:09:52;;;;;;;10.57;1.37;;;;;;;;;;5012169;28;20412;-89
2023/11/07 00:12:17;;;;;;;6.80;1.00;;;;;;;;;;5009987;28;20623;-89
2023/11/07 00:14:42;;;;;;;7.88;1.40;;;;;;;;;;5012143;28;20096;-89
2023/11/07 00:17:08;;;;;;;5.50;0.77;;;;;;;;;;5011775;28;20504;-89
2023/11/07 00:19:33;;;;;;;7.30;1.20;;;;;;;;;;5011529;28;20491;-89
2023/11/07 00:21:58;;;;;;;4.82;0.73;;;;;;;;;;5011013;28;20033;-89
2023/11/07 00:24:25;;;;;;;6.95;0.90;;;;;;;;;;5012376;28;20018;-88
2023/11/07 00:26:51;;;;;;;4.07;0.80;;;;;;;;;;5011826;28;20022;-89
2023/11/07 00:29:16;;;;;;;5.25;1.42;;;;;;;;;;5011998;28;20384;-89
2023/11/07 00:31:41;;;;;;;6.77;1.47;;;;;;;;;;5011047;28;20037;-89
2023/11/07 00:34:06;;;;;;;9.13;1.30;;;;;;;;;;5011743;28;20263;-88
2023/11/07 00:36:32;;;;;;;9.15;2.40;;;;;;;;;;5012064;28;20266;-89
2023/11/07 00:38:59;;;;;;;7.40;1.05;;;;;;;;;;5012061;28;20021;-88
2023/11/07 00:41:24;;;;;;;11.25;1.15;;;;;;;;;;5011415;28;20034;-89
2023/11/07 00:43:49;;;;;;;6.38;1.13;;;;;;;;;;5010453;28;20014;-89
2023/11/07 00:46:15;;;;;;;3.60;0.87;;;;;;;;;;5011948;28;20029;-89
2023/11/07 00:48:41;;;;;;;5.82;1.10;;;;;;;;;;5011901;28;20281;-89
2023/11/07 00:51:07;;;;;;;7.03;1.27;;;;;;;;;;5010353;28;20026;-89
2023/11/07 00:53:32;;;;;;;10.02;0.90;;;;;;;;;;5009395;28;20034;-89
2023/11/07 00:55:58;;;;;;;7.55;1.00;;;;;;;;;;5011187;28;20371;-89
2023/11/07 00:58:24;;;;;;;6.55;1.02;;;;;;;;;;5011816;28;20105;-89
2023/11/07 01:00:49;;;;;;;5.35;0.60;;;;;;;;;;5011807;28;20030;-89
2023/11/07 01:03:14;;;;;;;5.78;1.10;;;;;;;;;;5010662;28;20022;-89
2023/11/07 01:05:39;;;;;;;12.82;1.80;;;;;;;;;;5011476;28;20030;-89
2023/11/07 01:08:05;;;;;;;7.10;0.98;;;;;;;;;;5011570;28;20381;-89
2023/11/07 01:10:30;;;;;;;7.20;0.87;;;;;;;;;;5013395;28;20025;-89
2023/11/07 01:12:55;;;;;;;3.67;0.60;;;;;;;;;;5013268;28;20283;-89
2023/11/07 01:15:21;;;;;;;4.20;0.73;;;;;;;;;;5015243;28;20328;-89
2023/11/07 01:17:46;;;;;;;8.20;0.80;;;;;;;;;;5015253;28;20018;-89
2023/11/07 01:20:11;;;;;;;3.70;0.65;;;;;;;;;;5015001;28;20040;-89
2023/11/07 01:22:36;;;;;;;4.72;0.52;;;;;;;;;;5014450;28;20554;-89
2023/11/07 01:25:04;;;;;;;6.77;1.83;;;;;;;;;;5013983;28;20030;-89
2023/11/07 01:27:29;;;;;;;5.82;1.33;;;;;;;;;;5014871;28;20247;-88
2023/11/07 01:29:55;;;;;;;6.80;1.13;;;;;;;;;;5013719;28;20072;-90
2023/11/07 01:32:20;;;;;;;6.67;1.27;;;;;;;;;;5014251;28;20045;-89
2023/11/07 01:34:46;;;;;;;3.42;0.60;;;;;;;;;;5014868;28;20346;-89
2023/11/07 01:37:11;;;;;;;4.57;0.80;;;;;;;;;;5014971;28;20040;-89
2023/11/07 01:39:36;;;;;;;5.28;1.33;;;;;;;;;;5014634;28;20262;-89
2023/11/07 01:42:03;;;;;;;4.57;0.77;;;;;;;;;;5013807;28;20499;-89
2023/11/07 01:44:29;;;;;;;8.63;0.65;;;;;;;;;;5013931;28;20365;-89
2023/11/07 01:46:55;;;;;;;3.80;1.00;;;;;;;;;;5013491;28;20026;-88
2023/11/07 01:49:21;;;;;;;5.85;0.68;;;;;;;;;;5014892;28;20089;-89
2023/11/07 01:51:46;;;;;;;4.97;0.60;;;;;;;;;;5013524;28;20021;-89
2023/11/07 01:54:11;;;;;;;9.10;1.35;;;;;;;;;;5014175;28;20101;-89
2023/11/07 01:56:37;;;;;;;8.88;1.00;;;;;;;;;;5014472;28;20022;-89
2023/11/07 01:59:02;;;;;;;7.30;0.75;;;;;;;;;;5014629;28;20599;-89
2023/11/07 02:01:30;;;;;;;8.82;0.82;;;;;;;;;;5014673;28;20037;-88
2023/11/07 02:03:56;;;;;;;9.18;1.10;;;;;;;;;;5012912;28;20105;-88
2023/11/07 02:06:21;;;;;;;10.55;1.17;;;;;;;;;;5014166;28;20101;-89
2023/11/07 02:08:47;;;;;;;6.10;1.02;;;;;;;;;;5014701;28;20025;-88
2023/11/07 02:11:12;;;;;;;8.75;1.33;;;;;;;;;;5013995;28;20471;-88
2023/11/07 02:13:37;;;;;;;2.67;0.55;;;;;;;;;;5013308;28;20030;-88
2023/11/07 02:16:03;;;;;;;5.03;0.60;;;;;;;;;;5014028;28;20017;-88
2023/11/07 02:18:28;;;;;;;7.25;0.90;;;;;;;;;;5014270;28;20014;-89
2023/11/07 02:20:53;;;;;;;6.50;0.70;;;;;;;;;;5014165;28;20091;-88
2023/11/07 02:23:21;;;;;;;4.68;0.80;;;;;;;;;;5012114;28;20321;-88
2023/11/07 02:25:50;;;;;;;4.65;0.52;;;;;;;;;;5013626;28;20488;-89
2023/11/07 02:28:15;;;;;;;10.75;0.98;;;;;;;;;;5013606;28;20018;-89
2023/11/07 02:30:43;;;;;;;7.47;2.13;;;;;;;;;;5012537;28;20032;-89
2023/11/07 02:33:08;;;;;;;3.08;0.63;;;;;;;;;;5011674;28;20267;-89
2023/11/07 02:35:33;;;;;;;6.70;0.88;;;;;;;;;;5013122;28;20037;-88
2023/11/07 02:37:59;;;;;;;6.68;0.85;;;;;;;;;;5013797;28;20341;-89
2023/11/07 02:40:24;;;;;;;2.97;0.68;;;;;;;;;;5013471;28;20063;-88
2023/11/07 02:42:49;;;;;;;8.15;0.63;;;;;;;;;;5012855;28;20026;-89
2023/11/07 02:45:15;;;;;;;4.70;0.50;;;;;;;;;;5011992;28;20173;-89
2023/11/07 02:47:41;;;;;;;5.25;0.50;;;;;;;;;;5013739;28;20049;-88
2023/11/07 02:50:07;;;;;;;4.60;0.80;;;;;;;;;;5012046;28;20479;-88
2023/11/07 02:52:33;;;;;;;4.88;0.68;;;;;;;;;;5025212;28;20456;-88
2023/11/07 02:55:00;;;;;;;4.80;0.80;;;;;;;;;;5011902;28;20022;-88
2023/11/07 02:57:25;;;;;;;6.43;0.73;;;;;;;;;;5013500;28;20387;-89
2023/11/07 02:59:51;;;;;;;6.45;1.00;;;;;;;;;;5013054;28;20017;-88
2023/11/07 03:02:17;;;;;;;10.85;0.93;;;;;;;;;;5012299;28;20022;-89
2023/11/07 03:04:43;;;;;;;4.45;0.63;;;;;;;;;;5012206;28;20025;-88
2023/11/07 03:07:08;;;;;;;9.70;0.68;;;;;;;;;;5013179;28;20018;-89
2023/11/07 03:09:35;;;;;;;7.60;1.10;;;;;;;;;;5011985;28;20464;-89
2023/11/07 03:12:01;;;;;;;5.95;0.73;;;;;;;;;;5011911;28;20061;-90
2023/11/07 03:14:26;;;;;;;6.45;1.23;;;;;;;;;;5012187;28;20045;-88
2023/11/07 03:16:51;;;;;;;5.07;0.95;;;;;;;;;;5012973;28;20018;-88
2023/11/07 03:19:16;;;;;;;11.23;0.80;;;;;;;;;;5013173;28;20036;-89
2023/11/07 03:21:42;;;;;;;3.67;0.83;;;;;;;;;;5012946;28;20029;-88
2023/11/07 03:24:08;;;;;;;7.20;0.85;;;;;;;;;;5011308;28;20271;-89
2023/11/07 03:26:33;;;;;;;5.28;1.00;;;;;;;;;;5013032;28;20025;-88
2023/11/07 03:28:59;;;;;;;7.07;0.60;;;;;;;;;;5012624;28;20384;-88
2023/11/07 03:31:24;;;;;;;6.77;0.90;;;;;;;;;;5010507;28;20093;-88
2023/11/07 03:33:49;;;;;;;7.45;1.10;;;;;;;;;;5011884;28;20255;-89
2023/11/07 03:36:15;;;;;;;4.32;0.73;;;;;;;;;;5012717;28;20407;-88
2023/11/07 03:38:42;;;;;;;6.32;0.88;;;;;;;;;;5013104;28;20018;-89
2023/11/07 03:41:08;;;;;;;8.35;1.15;;;;;;;;;;5011857;28;20034;-88
2023/11/07 03:43:33;;;;;;;5.70;0.88;;;;;;;;;;5012752;28;20108;-88
2023/11/07 03:45:59;;;;;;;6.53;1.07;;;;;;;;;;5012606;28;20022;-89
2023/11/07 03:48:24;;;;;;;5.65;0.85;;;;;;;;;;5012958;28;20255;-88
2023/11/07 03:50:53;;;;;;;6.95;0.70;;;;;;;;;;5010008;28;20034;-88
2023/11/07 03:53:18;;;;;;;5.97;0.55;;;;;;;;;;5009177;28;20464;-88
2023/11/07 03:55:44;;;;;;;5.70;0.80;;;;;;;;;;5011969;28;20043;-89
2023/11/07 03:58:09;;;;;;;10.27;1.40;;;;;;;;;;5012166;28;20041;-88
2023/11/07 04:00:34;;;;;;;6.17;0.50;;;;;;;;;;5012076;28;20022;-89
2023/11/07 04:03:00;;;;;;;6.20;0.93;;;;;;;;;;5011415;28;20279;-89
2023/11/07 04:05:25;;;;;;;7.20;0.80;;;;;;;;;;5012348;28;20156;-88
2023/11/07 04:07:50;;;;;;;7.20;0.87;;;;;;;;;;5010647;28;20018;-88
2023/11/07 04:10:16;;;;;;;6.35;0.77;;;;;;;;;;5012000;28;20259;-88
2023/11/07 04:12:41;;;;;;;7.03;1.77;;;;;;;;;;5011243;28;20130;-89
2023/11/07 04:15:09;;;;;;;4.63;1.10;;;;;;;;;;5012082;28;20033;-88
2023/11/07 04:17:34;;;;;;;7.10;0.82;;;;;;;;;;5010765;28;20618;-89
2023/11/07 04:19:59;;;;;;;8.38;1.95;;;;;;;;;;5012158;28;20029;-88
2023/11/07 04:22:25;;;;;;;7.03;0.75;;;;;;;;;;5010682;28;20036;-89
2023/11/07 04:24:50;;;;;;;6.35;1.05;;;;;;;;;;5011547;28;20037;-88
2023/11/07 04:27:17;;;;;;;5.88;1.00;;;;;;;;;;5011959;28;20022;-89
2023/11/07 04:29:42;;;;;;;6.88;0.82;;;;;;;;;;5011957;28;20025;-89
2023/11/07 04:32:07;;;;;;;5.43;0.70;;;;;;;;;;5010926;28;20405;-89
2023/11/07 04:34:34;;;;;;;8.43;0.98;;;;;;;;;;5011814;28;20741;-89
2023/11/07 04:36:59;;;;;;;5.90;0.82;;;;;;;;;;5012028;28;20022;-88
2023/11/07 04:39:24;;;;;;;6.07;0.83;;;;;;;;;;5011665;28;20353;-89
2023/11/07 04:41:50;;;;;;;9.13;1.20;;;;;;;;;;5010725;28;20792;-89
2023/11/07 04:44:15;;;;;;;9.05;0.90;;;;;;;;;;5010899;28;20483;-89
2023/11/07 04:46:40;;;;;;;9.57;2.53;;;;;;;;;;5015786;28;20022;-89
2023/11/07 04:49:07;;;;;;;3.75;0.73;;;;;;;;;;5015638;28;20252;-88
2023/11/07 04:51:32;;;;;;;5.25;0.70;;;;;;;;;;5014483;28;20018;-89
2023/11/07 04:53:57;;;;;;;13.05;1.40;;;;;;;;;;5015477;28;20032;-89
2023/11/07 04:56:23;;;;;;;6.18;0.80;;;;;;;;;;5014045;28;20029;-88
2023/11/07 04:58:48;;;;;;;18.27;1.55;;;;;;;;;;5015489;28;20042;-88
2023/11/07 05:01:15;;;;;;;7.63;0.85;;;;;;;;;;5014437;28;20825;-89
2023/11/07 05:03:41;;;;;;;4.70;0.65;;;;;;;;;;5013846;28;20018;-89
2023/11/07 05:06:07;;;;;;;3.85;0.80;;;;;;;;;;5015361;28;20022;-89
2023/11/07 05:08:32;;;;;;;5.75;1.17;;;;;;;;;;5015699;28;20022;-89
2023/11/07 05:10:57;;;;;;;8.20;1.00;;;;;;;;;;5014922;28;20021;-90
2023/11/07 05:13:22;;;;;;;4.33;0.80;;;;;;;;;;5014034;28;20132;-89
2023/11/07 05:15:48;;;;;;;6.40;1.03;;;;;;;;;;5013819;28;20346;-89
2023/11/07 05:18:14;;;;;;;5.40;0.90;;;;;;;;;;5013916;28;20346;-89
2023/11/07 05:20:42;;;;;;;3.45;0.68;;;;;;;;;;5014924;28;20075;-89
2023/11/07 05:23:07;;;;;;;4.20;0.90;;;;;;;;;;5014437;28;20021;-89
2023/11/07 05:25:33;;;;;;;6.05;1.95;;;;;;;;;;5015322;28;20456;-89
2023/11/07 05:27:59;;;;;;;5.55;0.98;;;;;;;;;;5015190;28;20014;-89
2023/11/07 05:30:24;;;;;;;6.10;0.82;;;;;;;;;;5015103;28;20029;-89
2023/11/07 05:32:50;;;;;;;6.47;0.85;;;;;;;;;;5014016;28;20018;-89
2023/11/07 05:35:16;;;;;;;5.55;0.82;;;;;;;;;;5014670;28;20108;-89
2023/11/07 05:37:42;;;;;;;5.78;0.93;;;;;;;;;;5014628;28;20468;-89
2023/11/07 05:40:13;;;;;;;9.85;2.40;;;;;;;;;;5014664;28;20042;-89
2023/11/07 05:42:39;;;;;;;9.35;1.05;;;;;;;;;;5013961;28;20089;-89
2023/11/07 05:45:05;;;;;;;4.03;1.13;;;;;;;;;;5015106;28;20022;-89
2023/11/07 05:47:30;;;;;;;10.65;1.58;;;;;;;;;;5014636;28;20018;-89
2023/11/07 05:49:55;;;;;;;5.73;1.13;;;;;;;;;;5013508;28;20021;-88
2023/11/07 05:52:20;;;;;;;6.13;1.00;;;;;;;;;;5013789;28;20281;-89
2023/11/07 05:54:46;;;;;;;10.05;1.10;;;;;;;;;;5014038;28;20267;-88
2023/11/07 05:57:11;;;;;;;6.43;1.07;;;;;;;;;;5013411;28;20056;-89
2023/11/07 05:59:36;;;;;;;7.32;1.30;;;;;;;;;;5014469;28;20330;-89
2023/11/07 06:02:02;;;;;;;6.45;0.70;;;;;;;;;;5012739;28;20562;-88
2023/11/07 06:04:29;;;;;;;4.88;0.75;;;;;;;;;;5013986;28;20092;-88
2023/11/07 06:06:54;;;;;;;3.55;0.50;;;;;;;;;;5012900;28;20116;-88
2023/11/07 06:09:20;;;;;;;9.13;0.90;;;;;;;;;;5012551;28;20105;-88
2023/11/07 06:11:45;;;;;;;4.20;1.07;;;;;;;;;;5011791;28;20034;-89
2023/11/07 06:14:10;;;;;;;6.07;0.80;;;;;;;;;;5013994;28;20260;-89
2023/11/07 06:16:39;;;;;;;5.80;0.60;;;;;;;;;;5014125;28;20251;-89
2023/11/07 06:19:04;;;;;;;7.03;0.98;;;;;;;;;;5010859;28;20302;-88
2023/11/07 06:21:29;;;;;;;2.33;0.65;;;;;;;;;;5010769;28;20061;-88
2023/11/07 06:23:54;;;;;;;1.97;0.70;;;;;;;;;;5012533;28;20026;-88
2023/11/07 06:26:21;;;;;;;3.80;0.77;;;;;;;;;;5012541;28;20267;-89
2023/11/07 06:28:46;;;;;;;2.58;0.50;;;;;;;;;;5013315;28;20266;-89
2023/11/07 06:31:21;;;;;;;3.60;0.52;;;;;;;;;;5012625;28;20025;-89
2023/11/07 06:33:47;;;;;;;3.90;0.80;;;;;;;;;;5013679;28;20014;-88
2023/11/07 06:36:12;;;;;;;8.43;1.10;;;;;;;;;;5012274;28;20668;-88
2023/11/07 06:38:37;;;;;;;5.10;0.88;;;;;;;;;;5007274;28;20014;-89
2023/11/07 06:41:03;;;;;;;2.90;0.80;;;;;;;;;;5008797;28;20121;-88
2023/11/07 06:43:28;;;;;;;7.35;1.50;;;;;;;;;;5012264;28;20028;-88
2023/11/07 06:45:53;;;;;;;4.63;1.30;;;;;;;;;;5011955;28;20105;-88
2023/11/07 06:48:18;;;;;;;5.67;1.03;;;;;;;;;;5011929;28;20376;-88
2023/11/07 06:50:44;;;;;;;5.30;0.88;;;;;;;;;;5012020;28;20610;-89
2023/11/07 06:53:09;;;;;;;5.17;1.37;;;;;;;;;;5011921;28;20033;-89
2023/11/07 06:55:35;;;;;;;4.00;0.80;;;;;;;;;;5013263;28;20271;-89
2023/11/07 06:58:00;;;;;;;3.88;0.90;;;;;;;;;;5012407;28;20017;-88
2023/11/07 07:00:25;;;;;;;2.03;0.80;;;;;;;;;;5012958;28;20018;-89
2023/11/07 07:02:54;;;;;;;4.70;1.10;;;;;;;;;;5013308;28;20264;-88
2023/11/07 07:05:20;;;;;;;4.75;1.00;;;;;;;;;;5013342;28;20010;-88
2023/11/07 07:07:46;;;;;;;5.20;1.42;;;;;;;;;;5012611;28;20489;-88
2023/11/07 07:10:12;;;;;;;4.13;1.20;;;;;;;;;;5011131;28;20026;-88
2023/11/07 07:12:38;;;;;;;5.07;0.90;;;;;;;;;;5013489;28;20358;-88
2023/11/07 07:15:06;;;;;;;4.63;1.50;;;;;;;;;;5013144;28;20471;-88
2023/11/07 07:17:31;;;;;;;6.05;1.40;;;;;;;;;;5013106;28;20035;-88
2023/11/07 07:19:57;;;;;;;6.33;1.00;;;;;;;;;;5011990;28;20104;-88
2023/11/07 07:22:27;;;;;;;4.47;1.23;;;;;;;;;;5012572;28;20275;-88
2023/11/07 07:24:54;;;;;;;5.40;1.20;;;;;;;;;;5012916;28;20042;-89
2023/11/07 07:27:21;;;;;;;4.90;1.10;;;;;;;;;;5011722;28;20318;-89
2023/11/07 07:29:47;;;;;;;5.65;0.98;;;;;;;;;;5010666;28;20133;-88
2023/11/07 07:32:12;;;;;;;7.07;1.83;;;;;;;;;;5011469;28;20519;-88
2023/11/07 07:34:38;;;;;;;5.13;1.97;;;;;;;;;;5011844;28;20029;-88
2023/11/07 07:37:06;;;;;;;7.45;2.78;;;;;;;;;;5011650;28;20781;-88
2023/11/07 07:39:32;;;;;;;12.07;3.22;;;;;;;;;;5010145;28;20057;-88
2023/11/07 07:42:08;;;;;;;10.60;4.10;;;;;;;;;;5011341;28;20052;-88
2023/11/07 07:44:35;;;;;;;8.73;3.63;;;;;;;;;;5012440;28;20018;-89
2023/11/07 07:47:00;;;;;;;3.38;1.58;;;;;;;;;;5012464;28;20025;-89
2023/11/07 07:49:26;;;;;;;9.80;2.28;;;;;;;;;;5011598;28;20092;-88
2023/11/07 07:51:52;;;;;;;8.45;1.60;;;;;;;;;;5012633;28;20013;-89
2023/11/07 07:54:22;;;;;;;4.75;2.15;;;;;;;;;;5012095;28;20026;-88
2023/11/07 07:56:48;;;;;;;5.75;1.90;;;;;;;;;;5012250;28;20064;-88
2023/11/07 07:59:13;;;;;;;7.35;2.10;;;;;;;;;;5011471;28;20112;-89
2023/11/07 08:01:38;;;;;;;6.43;2.03;;;;;;;;;;5012024;28;20518;-88
2023/11/07 08:04:04;;;;;;;8.95;2.05;;;;;;;;;;5011157;28;20021;-89
2023/11/07 08:06:30;;;;;;;15.57;3.45;;;;;;;;;;5011039;28;20511;-88
2023/11/07 08:08:57;;;;;;;7.53;2.45;;;;;;;;;;5010875;28;20022;-89
2023/11/07 08:11:22;;;;;;;4.13;1.90;;;;;;;;;;5012070;28;20021;-88
2023/11/07 08:13:47;;;;;;;6.43;1.60;;;;;;;;;;5012120;28;20045;-89
2023/11/07 08:16:12;;;;;;;3.67;1.60;;;;;;;;;;5012255;28;20033;-89
2023/11/07 08:18:38;;;;;;;7.07;1.90;;;;;;;;;;5010842;28;20287;-89
2023/11/07 08:21:05;;;;;;;5.13;1.33;;;;;;;;;;5012195;28;20294;-89
2023/11/07 08:23:30;;;;;;;3.45;1.50;;;;;;;;;;5010814;28;20275;-89
2023/11/07 08:25:55;;;;;;;5.47;1.52;;;;;;;;;;5011964;28;20021;-89
2023/11/07 08:28:21;;;;;;;11.98;1.40;;;;;;;;;;5011269;28;20024;-89
2023/11/07 08:30:47;;;;;;;8.32;2.08;;;;;;;;;;5011444;28;20017;-89
2023/11/07 08:33:12;;;;;;;4.43;1.10;;;;;;;;;;5011865;28;20024;-89
2023/11/07 08:35:38;;;;;;;4.95;1.42;;;;;;;;;;5010527;28;20022;-90
2023/11/07 08:38:04;;;;;;;13.02;1.80;;;;;;;;;;5012325;28;20022;-91
2023/11/07 08:40:29;;;;;;;9.98;1.65;;;;;;;;;;5009093;28;20397;-91
2023/11/07 08:42:55;;;;;;;10.35;2.17;;;;;;;;;;5010119;28;20014;-89
2023/11/07 08:45:21;;;;;;;7.50;1.10;;;;;;;;;;5014188;28;20014;-89
2023/11/07 08:47:48;;;;;;;8.57;0.95;;;;;;;;;;5011089;28;20472;-90
2023/11/07 08:50:13;;;;;;;8.15;1.13;;;;;;;;;;5010896;28;20018;-91
2023/11/07 08:52:39;;;;;;;8.18;1.10;;;;;;;;;;5011539;28;20395;-91
2023/11/07 08:55:05;;;;;;;8.05;1.20;;;;;;;;;;5011283;28;20025;-91
2023/11/07 08:57:31;;;;;;;6.57;1.05;;;;;;;;;;5009508;28;20033;-91
2023/11/07 08:59:57;;;;;;;9.40;1.30;;;;;;;;;;5009991;28;20018;-90
2023/11/07 09:02:22;;;;;;;6.68;0.93;;;;;;;;;;5010991;28;20049;-92
2023/11/07 09:04:48;;;;;;;6.32;0.80;;;;;;;;;;5006248;28;20022;-91
2023/11/07 09:07:13;;;;;;;6.47;1.23;;;;;;;;;;5009959;28;20049;-92
2023/11/07 09:09:39;;;;;;;9.85;2.00;;;;;;;;;;5009771;28;20093;-90
2023/11/07 09:12:05;;;;;;;4.80;1.25;;;;;;;;;;5009826;28;20018;-90
2023/11/07 09:14:30;;;;;;;9.77;1.15;;;;;;;;;;5011529;28;20100;-92
2023/11/07 09:16:55;;;;;;;10.43;1.40;;;;;;;;;;5010272;28;20021;-91
2023/11/07 09:19:20;;;;;;;9.23;1.55;;;;;;;;;;5009220;28;20314;-90
2023/11/07 09:21:46;;;;;;;7.80;1.50;;;;;;;;;;5006625;28;20030;-90
2023/11/07 09:24:11;;;;;;;11.93;1.47;;;;;;;;;;4991780;28;20267;-90
2023/11/07 09:26:36;;;;;;;12.50;1.48;;;;;;;;;;4991867;28;20263;-89
2023/11/07 09:29:02;;;;;;;8.67;1.40;;;;;;;;;;5005921;28;20373;-90
2023/11/07 09:31:28;;;;;;;10.07;1.25;;;;;;;;;;5005423;28;20336;-90
2023/11/07 09:33:53;;;;;;;7.85;1.70;;;;;;;;;;5010060;28;20026;-90
2023/11/07 09:36:19;;;;;;;7.95;1.40;;;;;;;;;;5013212;28;20080;-90
2023/11/07 09:38:46;;;;;;;5.75;0.98;;;;;;;;;;5012474;28;20017;-90
2023/11/07 09:41:11;;;;;;;7.38;1.40;;;;;;;;;;5014432;28;20036;-90
2023/11/07 09:43:38;;;;;;;10.85;1.30;;;;;;;;;;5013124;28;20021;-91
2023/11/07 09:46:04;;;;;;;8.25;1.45;;;;;;;;;;5014272;28;20488;-94
2023/11/07 09:48:30;;;;;;;7.55;2.75;;;;;;;;;;5012053;28;20100;-95
2023/11/07 09:50:57;;;;;;;6.20;1.58;;;;;;;;;;5013683;28;20416;-91
2023/11/07 09:53:23;;;;;;;16.90;2.45;;;;;;;;;;5014213;28;20029;-92
2023/11/07 09:55:50;;;;;;;10.43;1.85;;;;;;;;;;5014804;28;20240;-94
2023/11/07 09:58:20;;;;;;;12.98;1.42;;;;;;;;;;5013406;28;20480;-90
2023/11/07 10:00:45;;;;;;;8.75;1.05;;;;;;;;;;5012510;28;20045;-90
2023/11/07 10:03:11;;;;;;;14.13;1.85;;;;;;;;;;5013573;28;20416;-91
2023/11/07 10:05:38;;;;;;;13.30;2.22;;;;;;;;;;5014081;28;20021;-90
2023/11/07 10:08:04;;;;;;;5.53;0.90;;;;;;;;;;5012813;28;20021;-90
2023/11/07 10:10:29;;;;;;;12.10;1.83;;;;;;;;;;5013992;28;20021;-91
2023/11/07 10:13:05;;;;;;;5.63;1.30;;;;;;;;;;5013306;28;20338;-90
2023/11/07 10:15:30;;;;;;;6.30;1.38;;;;;;;;;;4993862;28;20101;-91
2023/11/07 10:17:58;;;;;;;6.63;1.43;;;;;;;;;;5000838;28;20065;-91
2023/11/07 10:20:24;;;;;;;9.60;2.17;;;;;;;;;;5012664;28;20621;-90
2023/11/07 10:22:49;;;;;;;9.35;1.88;;;;;;;;;;5013418;28;20112;-90
2023/11/07 10:25:34;;;;;;;9.23;1.70;;;;;;;;;;5013522;28;20021;-90
2023/11/07 10:27:59;;;;;;;12.73;2.55;;;;;;;;;;5003324;28;20081;-90
2023/11/07 10:30:43;;;;;;;11.85;1.27;;;;;;;;;;5011850;28;20037;-90
2023/11/07 10:33:09;;;;;;;9.60;1.30;;;;;;;;;;5012526;28;20029;-90
2023/11/07 10:35:58;;;;;;;7.88;1.33;;;;;;;;;;5013545;28;20018;-90
2023/11/07 10:38:23;;;;;;;6.90;1.33;;;;;;;;;;5012252;28;20121;-92
2023/11/07 10:40:49;;;;;;;10.93;1.30;;;;;;;;;;5012449;28;20109;-91
2023/11/07 10:43:35;;;;;;;4.60;1.15;;;;;;;;;;5011436;28;20025;-91
2023/11/07 10:46:02;;;;;;;9.68;1.33;;;;;;;;;;4998821;28;20030;-91
2023/11/07 10:48:30;;;;;;;13.20;1.63;;;;;;;;;;5011931;28;20026;-90
2023/11/07 10:50:57;;;;;;;8.38;1.50;;;;;;;;;;5011907;28;20479;-90
2023/11/07 10:53:22;;;;;;;10.35;1.75;;;;;;;;;;5012887;28;20034;-90
2023/11/07 10:55:47;;;;;;;8.55;1.40;;;;;;;;;;5012915;28;20087;-92
2023/11/07 10:58:14;;;;;;;13.05;1.77;;;;;;;;;;5009992;28;20053;-93
2023/11/07 11:00:40;;;;;;;12.15;1.83;;;;;;;;;;5011538;28;20034;-92
2023/11/07 11:03:09;;;;;;;11.23;1.38;;;;;;;;;;5012042;28;20045;-92
2023/11/07 11:05:36;;;;;;;8.07;1.45;;;;;;;;;;5012917;28;20044;-90
2023/11/07 11:08:04;;;;;;;8.15;1.35;;;;;;;;;;5008888;28;20018;-91
2023/11/07 11:10:30;;;;;;;12.68;1.42;;;;;;;;;;5011555;28;20025;-91
2023/11/07 11:12:56;;;;;;;10.65;1.35;;;;;;;;;;5010676;28;20099;-89
2023/11/07 11:15:22;;;;;;;9.07;1.52;;;;;;;;;;5012195;28;20540;-91
2023/11/07 11:17:59;;;;;;;19.10;1.90;;;;;;;;;;5010911;28;20034;-89
2023/11/07 11:20:40;;;;;;;13.15;2.03;;;;;;;;;;5012589;28;20022;-91
2023/11/07 11:23:10;;;;;;;3.88;0.90;;;;;;;;;;5012585;28;20053;-91
2023/11/07 11:26:01;;;;;;;10.35;1.75;;;;;;;;;;5012666;28;20042;-90
2023/11/07 11:28:37;;;;;;;12.40;1.55;;;;;;;;;;5009641;28;20033;-90
2023/11/07 11:31:03;;;;;;;8.43;1.60;;;;;;;;;;5011958;28;20380;-90
2023/11/07 11:33:28;;;;;;;5.38;1.10;;;;;;;;;;5010172;28;20049;-89
2023/11/07 11:35:55;;;;;;;6.80;1.10;;;;;;;;;;5012677;28;20022;-90
2023/11/07 11:38:20;;;;;;;4.97;2.10;;;;;;;;;;5012587;28;20255;-89
2023/11/07 11:40:52;;;;;;;9.50;1.35;;;;;;;;;;5012299;28;20025;-91
2023/11/07 11:43:18;;;;;;;6.80;1.17;;;;;;;;;;5011857;28;20034;-90
2023/11/07 11:45:44;;;;;;;11.57;1.75;;;;;;;;;;5010830;28;20018;-91
2023/11/07 11:48:10;;;;;;;12.32;1.98;;;;;;;;;;5012441;28;20018;-91
2023/11/07 11:50:37;;;;;;;7.90;1.85;;;;;;;;;;5011164;28;20386;-90
2023/11/07 11:53:02;;;;;;;8.68;2.00;;;;;;;;;;5009604;28;20033;-92
2023/11/07 11:55:48;;;;;;;8.50;1.30;;;;;;;;;;5010658;28;20033;-91
2023/11/07 11:58:15;;;;;;;11.50;1.52;;;;;;;;;;5011929;28;20072;-91
2023/11/07 12:00:43;;;;;;;4.38;1.08;;;;;;;;;;5011223;28;20476;-90
2023/11/07 12:03:18;;;;;;;9.55;1.85;;;;;;;;;;5011878;28;20014;-91
2023/11/07 12:06:04;;;;;;;3.08;0.70;;;;;;;;;;5010289;28;20028;-92
2023/11/07 12:08:34;;;;;;;8.27;1.48;;;;;;;;;;5011847;28;20017;-90
2023/11/07 12:11:02;;;;;;;10.43;1.10;;;;;;;;;;5010042;28;20097;-90
2023/11/07 12:13:30;;;;;;;4.50;0.93;;;;;;;;;;5008977;28;20380;-93
2023/11/07 12:15:57;;;;;;;2.63;0.70;;;;;;;;;;5009689;28;20113;-92
2023/11/07 12:18:22;;;;;;;5.85;0.80;;;;;;;;;;5010541;28;20548;-90
2023/11/07 12:20:48;;;;;;;7.65;1.52;;;;;;;;;;5008891;28;20132;-91
2023/11/07 12:23:14;;;;;;;4.50;1.00;;;;;;;;;;5009917;28;20432;-92
2023/11/07 12:25:50;;;;;;;8.00;1.67;;;;;;;;;;5011726;28;20018;-91
2023/11/07 12:28:15;;;;;;;8.18;1.17;;;;;;;;;;5011605;28;20024;-91
2023/11/07 12:30:40;;;;;;;7.47;1.05;;;;;;;;;;5011145;28;20018;-91
2023/11/07 12:33:09;;;;;;;5.57;1.40;;;;;;;;;;5011778;28;20088;-91
2023/11/07 12:35:35;;;;;;;7.05;1.92;;;;;;;;;;5009592;28;20788;-91
2023/11/07 12:38:06;;;;;;;5.13;0.90;;;;;;;;;;5011447;28;20064;-91
2023/11/07 12:40:32;;;;;;;9.93;1.10;;;;;;;;;;5011652;28;20024;-90
2023/11/07 12:42:58;;;;;;;5.20;0.85;;;;;;;;;;5012133;28;20040;-91
2023/11/07 12:45:29;;;;;;;10.57;1.25;;;;;;;;;;5010408;28;20017;-93
2023/11/07 12:47:58;;;;;;;4.38;0.98;;;;;;;;;;5009521;28;20029;-89
2023/11/07 12:50:24;;;;;;;5.20;0.77;;;;;;;;;;5011644;28;20052;-89
2023/11/07 12:52:56;;;;;;;7.88;0.93;;;;;;;;;;5011054;28;20057;-91
2023/11/07 12:55:26;;;;;;;3.20;0.95;;;;;;;;;;5011444;28;20065;-91
2023/11/07 12:57:51;;;;;;;1.80;0.65;;;;;;;;;;5008896;28;20026;-91
2023/11/07 13:00:18;;;;;;;5.75;0.77;;;;;;;;;;5010024;28;20549;-90
2023/11/07 13:02:44;;;;;;;10.93;1.95;;;;;;;;;;5010088;28;20021;-91
2023/11/07 13:05:13;;;;;;;8.70;1.70;;;;;;;;;;5010349;28;20053;-91
2023/11/07 13:07:38;;;;;;;7.03;1.48;;;;;;;;;;5015395;28;20060;-91
2023/11/07 13:10:14;;;;;;;4.23;1.00;;;;;;;;;;5015144;28;20025;-89
2023/11/07 13:12:39;;;;;;;9.13;1.60;;;;;;;;;;5015628;28;20252;-91
2023/11/07 13:15:05;;;;;;;5.93;1.45;;;;;;;;;;5013442;28;20029;-89
2023/11/07 13:17:30;;;;;;;6.07;1.15;;;;;;;;;;5014100;28;20022;-90
2023/11/07 13:19:55;;;;;;;6.35;1.00;;;;;;;;;;5007548;28;20098;-90
2023/11/07 13:22:20;;;;;;;5.50;1.10;;;;;;;;;;4995278;28;20034;-89
2023/11/07 13:24:46;;;;;;;5.07;1.00;;;;;;;;;;5005000;28;20318;-88
2023/11/07 13:27:12;;;;;;;9.48;2.60;;;;;;;;;;5014876;28;20290;-89
2023/11/07 13:29:37;;;;;;;7.67;1.30;;;;;;;;;;5013474;28;20025;-89
2023/11/07 13:32:05;;;;;;;4.37;1.10;;;;;;;;;;5014657;28;20259;-90
2023/11/07 13:34:30;;;;;;;5.75;1.33;;;;;;;;;;5015213;28;20251;-88
2023/11/07 13:36:55;;;;;;;5.10;1.38;;;;;;;;;;5014818;28;20424;-89
2023/11/07 13:39:23;;;;;;;5.70;1.10;;;;;;;;;;5014723;28;20022;-90
2023/11/07 13:41:49;;;;;;;8.18;2.40;;;;;;;;;;5014434;28;20036;-88
2023/11/07 13:44:15;;;;;;;8.35;1.20;;;;;;;;;;5011829;28;20022;-89
2023/11/07 13:46:40;;;;;;;4.28;0.77;;;;;;;;;;5013785;28;20022;-91
2023/11/07 13:49:08;;;;;;;13.02;1.65;;;;;;;;;;5014518;28;20014;-90
2023/11/07 13:51:34;;;;;;;8.00;0.73;;;;;;;;;;5014491;28;20029;-89
2023/11/07 13:53:59;;;;;;;8.43;1.40;;;;;;;;;;5014399;28;20014;-90
2023/11/07 13:56:25;;;;;;;8.52;1.20;;;;;;;;;;5013840;28;20057;-90
2023/11/07 13:58:53;;;;;;;4.70;0.98;;;;;;;;;;5008654;28;20093;-90
2023/11/07 14:01:18;;;;;;;5.22;1.30;;;;;;;;;;5010007;28;20068;-89
2023/11/07 14:03:44;;;;;;;4.28;1.20;;;;;;;;;;5011382;28;20495;-90
2023/11/07 14:06:09;;;;;;;6.65;1.25;;;;;;;;;;4994610;28;20014;-89
2023/11/07 14:08:35;;;;;;;3.40;0.70;;;;;;;;;;4994572;28;20026;-89
2023/11/07 14:11:02;;;;;;;5.95;0.80;;;;;;;;;;4995795;28;20476;-89
2023/11/07 14:13:27;;;;;;;7.38;1.52;;;;;;;;;;5012359;28;20084;-90
2023/11/07 14:15:52;;;;;;;4.38;0.57;;;;;;;;;;5013974;28;20026;-90
2023/11/07 14:18:18;;;;;;;14.32;1.80;;;;;;;;;;5012341;28;20114;-90
2023/11/07 14:20:53;;;;;;;3.47;0.68;;;;;;;;;;5013116;28;20034;-91
2023/11/07 14:23:18;;;;;;;8.30;1.02;;;;;;;;;;5012383;28;20546;-91
2023/11/07 14:25:43;;;;;;;9.60;1.35;;;;;;;;;;5013063;28;20033;-91
2023/11/07 14:28:10;;;;;;;4.90;0.75;;;;;;;;;;5013136;28;20532;-91
2023/11/07 14:30:43;;;;;;;8.60;1.08;;;;;;;;;;5013832;28;20018;-91
2023/11/07 14:33:08;;;;;;;7.85;1.00;;;;;;;;;;5013767;28;20025;-90
2023/11/07 14:35:34;;;;;;;8.43;1.05;;;;;;;;;;5011316;28;20022;-91